Time;durP1;ratioP1;P1;durP2;ratioP2;P2;SDS_P1;SDS_P2;PMS_P1;PMS_P2;Temp;Humidity;BMP_temperature;BMP_pressure;BME280_temperature;BME280_humidity;BME280_pressure;Samples;Min_cycle;Max_cycle;Signal;HPM_P1;HPM_P2
2021/01/18 00:02:12;;;;;;;;;;;3.40;85.10;;;;;;5056304;28;20031;-70
2021/01/18 00:04:53;;;;;;;;;;;3.50;84.70;;;;;;5056159;28;20019;-70
2021/01/18 00:07:19;;;;;;;;;;;3.40;84.70;;;;;;5047582;28;20019;-70
2021/01/18 00:09:46;;;;;;;;;;;3.40;84.50;;;;;;5056321;28;20019;-70
2021/01/18 00:12:12;;;;;;;;;;;3.40;84.70;;;;;;5056160;28;20015;-70
2021/01/18 00:14:38;;;;;;;;;;;3.40;84.50;;;;;;5055879;28;20035;-70
2021/01/18 00:17:06;;;;;;;;;;;3.40;84.90;;;;;;5056265;28;20376;-70
2021/01/18 00:19:33;;;;;;;;;;;3.30;84.50;;;;;;5055585;28;19924;-70
2021/01/18 00:21:59;;;;;;;;;;;3.30;85.00;;;;;;5056284;28;20011;-71
2021/01/18 00:24:25;;;;;;;;;;;3.30;85.00;;;;;;5055522;28;20330;-71
2021/01/18 00:26:51;;;;;;;;;;;3.30;84.90;;;;;;5051229;28;20015;-71
2021/01/18 00:29:17;;;;;;;;;;;3.30;85.20;;;;;;5045639;28;20016;-71
2021/01/18 00:31:44;;;;;;;;;;;3.30;85.10;;;;;;5071710;28;20023;-71
2021/01/18 00:34:11;;;;;;;;;;;3.30;85.30;;;;;;5055933;28;19925;-71
2021/01/18 00:36:44;;;;;;;;;;;3.20;85.00;;;;;;5042405;28;20007;-71
2021/01/18 00:39:10;;;;;;;;;;;3.20;85.10;;;;;;5055589;28;20027;-71
2021/01/18 00:41:38;;;;;;;;;;;3.20;85.30;;;;;;5054072;28;20003;-71
2021/01/18 00:44:05;;;;;;;;;;;3.30;85.40;;;;;;5055155;28;20411;-71
2021/01/18 00:46:31;;;;;;;;;;;3.30;85.20;;;;;;5055053;28;20011;-71
2021/01/18 00:48:58;;;;;;;;;;;3.30;85.10;;;;;;5055514;28;20427;-71
2021/01/18 00:51:25;;;;;;;;;;;3.20;84.90;;;;;;5055070;28;20012;-71
2021/01/18 00:53:51;;;;;;;;;;;3.20;84.90;;;;;;5055273;28;20007;-71
2021/01/18 00:56:17;;;;;;;;;;;3.20;85.00;;;;;;5055302;28;19956;-71
2021/01/18 00:58:43;;;;;;;;;;;3.20;85.10;;;;;;5055009;28;20019;-71
2021/01/18 01:01:09;;;;;;;;;;;3.20;85.30;;;;;;5055187;28;20015;-71
2021/01/18 01:03:36;;;;;;;;;;;3.30;85.40;;;;;;5055054;28;20019;-71
2021/01/18 01:06:02;;;;;;;;;;;3.20;85.50;;;;;;5055334;28;20314;-70
2021/01/18 01:08:29;;;;;;;;;;;3.20;85.60;;;;;;5054836;28;20012;-70
2021/01/18 01:10:55;;;;;;;;;;;3.20;85.60;;;;;;5047755;28;20007;-71
2021/01/18 01:13:21;;;;;;;;;;;3.20;85.40;;;;;;5055187;28;20011;-70
2021/01/18 01:15:48;;;;;;;;;;;3.20;85.30;;;;;;5054895;28;20300;-70
2021/01/18 01:18:14;;;;;;;;;;;3.10;84.80;;;;;;5054870;28;19928;-71
2021/01/18 01:20:40;;;;;;;;;;;3.20;85.20;;;;;;5054481;28;20438;-70
2021/01/18 01:23:06;;;;;;;;;;;3.10;84.90;;;;;;5055073;28;20015;-70
2021/01/18 01:25:33;;;;;;;;;;;3.10;85.00;;;;;;5054554;28;20008;-70
2021/01/18 01:27:59;;;;;;;;;;;3.10;85.00;;;;;;5054130;28;20020;-71
2021/01/18 01:30:26;;;;;;;;;;;3.00;85.10;;;;;;5053935;28;20012;-70
2021/01/18 01:32:53;;;;;;;;;;;3.00;85.30;;;;;;5054623;28;20058;-70
2021/01/18 01:35:20;;;;;;;;;;;3.00;85.40;;;;;;5054438;28;20011;-70
2021/01/18 01:37:46;;;;;;;;;;;3.00;85.40;;;;;;5048897;28;20020;-70
2021/01/18 01:40:14;;;;;;;;;;;3.00;85.50;;;;;;5054600;28;20066;-70
2021/01/18 01:42:42;;;;;;;;;;;3.00;85.50;;;;;;5054293;28;20319;-70
2021/01/18 01:45:09;;;;;;;;;;;3.00;85.60;;;;;;5054597;28;20007;-70
2021/01/18 01:47:37;;;;;;;;;;;3.00;85.40;;;;;;5054003;28;20012;-70
2021/01/18 01:50:04;;;;;;;;;;;2.90;85.20;;;;;;5045215;28;19963;-70
2021/01/18 01:52:31;;;;;;;;;;;2.90;85.30;;;;;;5053722;28;20047;-71
2021/01/18 01:55:00;;;;;;;;;;;3.00;85.20;;;;;;5054621;28;20067;-70
2021/01/18 01:57:28;;;;;;;;;;;2.90;85.40;;;;;;5053868;28;20292;-70
2021/01/18 01:59:57;;;;;;;;;;;2.90;85.60;;;;;;5054230;28;19986;-70
2021/01/18 02:02:24;;;;;;;;;;;2.90;85.50;;;;;;5053117;28;19931;-70
2021/01/18 02:04:50;;;;;;;;;;;2.90;85.40;;;;;;5043772;28;20442;-71
2021/01/18 02:07:23;;;;;;;;;;;2.90;85.60;;;;;;5054280;28;20023;-70
2021/01/18 02:09:49;;;;;;;;;;;2.90;85.90;;;;;;5047101;28;19963;-70
2021/01/18 02:12:16;;;;;;;;;;;2.90;86.00;;;;;;5051852;28;20023;-70
2021/01/18 02:14:46;;;;;;;;;;;2.90;86.20;;;;;;5053865;28;19971;-70
2021/01/18 02:17:17;;;;;;;;;;;2.90;86.10;;;;;;5053534;28;20012;-70
2021/01/18 02:19:54;;;;;;;;;;;2.90;86.20;;;;;;5053495;28;20198;-70
2021/01/18 02:22:39;;;;;;;;;;;2.90;86.10;;;;;;5040987;28;20007;-70
2021/01/18 02:25:23;;;;;;;;;;;2.80;85.80;;;;;;5057539;28;20019;-70
2021/01/18 02:28:01;;;;;;;;;;;2.80;86.00;;;;;;5054005;28;19925;-71
2021/01/18 02:30:45;;;;;;;;;;;2.80;85.90;;;;;;5053020;28;20011;-70
2021/01/18 02:33:26;;;;;;;;;;;2.80;85.60;;;;;;5052045;28;20032;-70
2021/01/18 02:36:07;;;;;;;;;;;2.70;85.90;;;;;;5052630;28;20011;-70
2021/01/18 02:38:37;;;;;;;;;;;2.70;86.00;;;;;;5048174;28;19971;-70
2021/01/18 02:41:09;;;;;;;;;;;2.70;86.20;;;;;;5052980;28;20256;-71
2021/01/18 02:43:40;;;;;;;;;;;2.60;86.20;;;;;;5044730;28;20024;-70
2021/01/18 02:46:07;;;;;;;;;;;2.70;86.70;;;;;;5052739;28;20035;-71
2021/01/18 02:48:34;;;;;;;;;;;2.70;86.60;;;;;;5053516;28;19925;-70
2021/01/18 02:51:03;;;;;;;;;;;2.70;86.70;;;;;;5052802;28;20011;-70
2021/01/18 02:53:30;;;;;;;;;;;2.70;86.70;;;;;;5053440;28;20015;-70
2021/01/18 02:55:57;;;;;;;;;;;2.70;86.60;;;;;;5052706;28;20015;-70
2021/01/18 02:58:24;;;;;;;;;;;2.70;86.50;;;;;;5053411;28;19960;-70
2021/01/18 03:00:53;;;;;;;;;;;2.70;86.50;;;;;;5039850;28;20020;-70
2021/01/18 03:03:26;;;;;;;;;;;2.70;86.70;;;;;;5052643;28;20760;-70
2021/01/18 03:05:57;;;;;;;;;;;2.80;86.80;;;;;;5044721;28;20008;-70
2021/01/18 03:08:28;;;;;;;;;;;2.70;86.30;;;;;;5049936;28;20122;-70
2021/01/18 03:10:57;;;;;;;;;;;2.70;86.50;;;;;;5046389;28;19942;-70
2021/01/18 03:13:26;;;;;;;;;;;2.70;86.20;;;;;;5052436;28;20019;-70
2021/01/18 03:15:54;;;;;;;;;;;2.70;85.90;;;;;;5053099;28;20329;-71
2021/01/18 03:18:22;;;;;;;;;;;2.70;86.50;;;;;;5052095;28;20011;-70
2021/01/18 03:20:49;;;;;;;;;;;2.70;86.40;;;;;;5052940;28;20027;-70
2021/01/18 03:23:15;;;;;;;;;;;2.80;86.50;;;;;;5052205;28;20004;-70
2021/01/18 03:25:51;;;;;;;;;;;2.70;86.10;;;;;;5052701;28;20011;-71
2021/01/18 03:28:19;;;;;;;;;;;2.80;86.30;;;;;;5051912;28;20008;-71
2021/01/18 03:30:46;;;;;;;;;;;2.80;86.00;;;;;;5052618;28;20008;-71
2021/01/18 03:33:12;;;;;;;;;;;2.80;85.90;;;;;;5052249;28;19986;-70
2021/01/18 03:35:39;;;;;;;;;;;2.80;85.60;;;;;;5047995;28;20012;-70
2021/01/18 03:38:05;;;;;;;;;;;2.80;85.10;;;;;;5047970;28;20295;-70
2021/01/18 03:40:32;;;;;;;;;;;2.80;85.70;;;;;;5052723;28;20326;-70
2021/01/18 03:42:59;;;;;;;;;;;2.80;85.50;;;;;;5052662;28;20420;-71
2021/01/18 03:45:27;;;;;;;;;;;2.80;85.40;;;;;;5052074;28;20028;-71
2021/01/18 03:47:53;;;;;;;;;;;2.80;85.00;;;;;;5052373;28;19999;-71
2021/01/18 03:50:19;;;;;;;;;;;2.80;85.00;;;;;;5052135;28;20019;-71
2021/01/18 03:52:46;;;;;;;;;;;2.80;85.10;;;;;;5052171;28;20011;-70
2021/01/18 03:55:13;;;;;;;;;;;2.70;84.80;;;;;;5052180;28;19924;-71
2021/01/18 03:57:39;;;;;;;;;;;2.70;84.80;;;;;;5052686;28;19964;-70
2021/01/18 04:00:06;;;;;;;;;;;2.60;84.70;;;;;;5052065;28;20011;-71
2021/01/18 04:02:33;;;;;;;;;;;2.60;85.10;;;;;;5052399;28;20423;-70
2021/01/18 04:04:59;;;;;;;;;;;2.60;85.40;;;;;;5052695;28;19951;-71
2021/01/18 04:07:26;;;;;;;;;;;2.60;85.40;;;;;;5051860;28;20318;-70
2021/01/18 04:09:52;;;;;;;;;;;2.60;85.40;;;;;;5045608;28;20398;-71
2021/01/18 04:12:18;;;;;;;;;;;2.70;85.20;;;;;;5048152;28;20027;-70
2021/01/18 04:14:45;;;;;;;;;;;2.70;85.20;;;;;;5052619;28;20015;-71
2021/01/18 04:17:11;;;;;;;;;;;2.70;85.40;;;;;;5051670;28;19933;-70
2021/01/18 04:19:38;;;;;;;;;;;2.70;85.00;;;;;;5052136;28;20019;-70
2021/01/18 04:22:05;;;;;;;;;;;2.70;85.10;;;;;;5051819;28;19964;-70
2021/01/18 04:24:32;;;;;;;;;;;2.70;85.20;;;;;;5052389;28;19925;-70
2021/01/18 04:26:59;;;;;;;;;;;2.70;85.40;;;;;;5052153;28;20023;-70
2021/01/18 04:29:26;;;;;;;;;;;2.80;85.50;;;;;;5055104;28;20023;-70
2021/01/18 04:31:52;;;;;;;;;;;2.80;85.50;;;;;;5055704;28;20009;-70
2021/01/18 04:34:18;;;;;;;;;;;2.80;85.40;;;;;;5055551;28;20415;-70
2021/01/18 04:36:45;;;;;;;;;;;2.70;85.10;;;;;;5055420;28;20418;-70
2021/01/18 04:39:12;;;;;;;;;;;2.70;85.40;;;;;;5047048;28;19990;-70
2021/01/18 04:41:40;;;;;;;;;;;2.80;85.30;;;;;;5055455;28;20024;-70
2021/01/18 04:44:07;;;;;;;;;;;2.80;85.30;;;;;;5055304;28;20000;-70
2021/01/18 04:46:37;;;;;;;;;;;2.80;85.20;;;;;;5053927;28;20027;-71
2021/01/18 04:49:03;;;;;;;;;;;2.80;84.70;;;;;;5055815;28;20300;-71
2021/01/18 04:51:33;;;;;;;;;;;2.80;85.00;;;;;;5054923;28;20065;-71
2021/01/18 04:54:00;;;;;;;;;;;2.80;85.00;;;;;;5055654;28;19968;-70
2021/01/18 04:56:36;;;;;;;;;;;2.80;85.10;;;;;;5053326;28;20011;-70
2021/01/18 04:59:03;;;;;;;;;;;2.70;85.10;;;;;;5055356;28;20362;-71
2021/01/18 05:01:30;;;;;;;;;;;2.80;85.20;;;;;;5055003;28;20020;-72
2021/01/18 05:04:03;;;;;;;;;;;2.70;85.20;;;;;;5055245;28;20011;-71
2021/01/18 05:06:46;;;;;;;;;;;2.70;85.30;;;;;;5054816;28;19960;-71
2021/01/18 05:09:22;;;;;;;;;;;2.70;85.30;;;;;;5054807;28;19925;-72
2021/01/18 05:11:49;;;;;;;;;;;2.70;85.50;;;;;;5055142;28;20004;-71
2021/01/18 05:14:16;;;;;;;;;;;2.70;85.40;;;;;;5041558;28;20318;-70
2021/01/18 05:16:44;;;;;;;;;;;2.70;85.60;;;;;;5054853;28;19932;-72
2021/01/18 05:19:11;;;;;;;;;;;2.70;85.80;;;;;;5054695;28;20375;-71
2021/01/18 05:21:38;;;;;;;;;;;2.70;85.60;;;;;;5055090;28;20023;-71
2021/01/18 05:24:05;;;;;;;;;;;2.70;85.30;;;;;;5054955;28;19937;-71
2021/01/18 05:26:32;;;;;;;;;;;2.70;85.40;;;;;;5054419;28;20028;-71
2021/01/18 05:28:58;;;;;;;;;;;2.70;85.50;;;;;;5041437;28;19958;-71
2021/01/18 05:31:32;;;;;;;;;;;2.70;85.40;;;;;;5062377;28;19928;-71
2021/01/18 05:33:59;;;;;;;;;;;2.80;85.20;;;;;;5054973;28;20016;-72
2021/01/18 05:36:33;;;;;;;;;;;2.80;85.20;;;;;;5045272;28;19967;-71
2021/01/18 05:39:07;;;;;;;;;;;2.80;85.40;;;;;;5045296;28;20023;-71
2021/01/18 05:41:34;;;;;;;;;;;2.70;85.40;;;;;;5054012;28;19964;-72
2021/01/18 05:44:01;;;;;;;;;;;2.80;85.50;;;;;;5054857;28;20062;-71
2021/01/18 05:46:27;;;;;;;;;;;2.80;85.40;;;;;;5053757;28;20097;-71
2021/01/18 05:48:54;;;;;;;;;;;2.80;85.40;;;;;;5054707;28;20422;-71
2021/01/18 05:51:22;;;;;;;;;;;2.80;85.60;;;;;;5053955;28;20000;-71
2021/01/18 05:53:49;;;;;;;;;;;2.80;85.80;;;;;;5054567;28;20007;-71
2021/01/18 05:56:16;;;;;;;;;;;2.80;85.50;;;;;;5053797;28;20004;-71
2021/01/18 05:58:45;;;;;;;;;;;2.80;85.40;;;;;;5054328;28;19947;-71
2021/01/18 06:01:11;;;;;;;;;;;2.80;85.90;;;;;;5053987;28;20051;-71
2021/01/18 06:03:37;;;;;;;;;;;2.80;85.90;;;;;;5049058;28;20020;-71
2021/01/18 06:06:04;;;;;;;;;;;2.80;85.70;;;;;;5054190;28;19971;-71
2021/01/18 06:08:30;;;;;;;;;;;2.90;85.70;;;;;;5047639;28;20066;-71
2021/01/18 06:10:57;;;;;;;;;;;2.90;85.40;;;;;;5053962;28;20024;-71
2021/01/18 06:13:24;;;;;;;;;;;2.90;85.00;;;;;;5053698;28;20008;-71
2021/01/18 06:15:53;;;;;;;;;;;2.90;85.10;;;;;;5053684;28;19925;-71
2021/01/18 06:18:19;;;;;;;;;;;3.00;85.00;;;;;;5053569;28;20019;-72
2021/01/18 06:20:46;;;;;;;;;;;3.00;84.80;;;;;;5053661;28;19963;-71
2021/01/18 06:23:20;;;;;;;;;;;3.00;84.50;;;;;;5054013;28;19936;-71
2021/01/18 06:25:48;;;;;;;;;;;3.10;84.30;;;;;;5046999;28;20016;-71
2021/01/18 06:28:27;;;;;;;;;;;3.10;84.30;;;;;;5053734;28;20011;-71
2021/01/18 06:30:58;;;;;;;;;;;3.20;84.50;;;;;;5052922;28;20692;-72
2021/01/18 06:33:35;;;;;;;;;;;3.10;84.20;;;;;;5053656;28;20019;-71
2021/01/18 06:36:18;;;;;;;;;;;3.10;84.30;;;;;;5059586;28;20308;-71
2021/01/18 06:38:45;;;;;;;;;;;3.20;84.20;;;;;;5053147;28;20003;-71
2021/01/18 06:41:13;;;;;;;;;;;3.10;84.20;;;;;;5053240;28;20015;-71
2021/01/18 06:43:46;;;;;;;;;;;3.20;84.50;;;;;;5053048;28;20015;-72
2021/01/18 06:46:19;;;;;;;;;;;3.20;84.50;;;;;;5049308;28;20036;-72
2021/01/18 06:48:49;;;;;;;;;;;3.20;85.00;;;;;;5050075;28;20012;-70
2021/01/18 06:51:17;;;;;;;;;;;3.10;84.70;;;;;;5052806;28;19968;-70
2021/01/18 06:53:44;;;;;;;;;;;3.10;84.60;;;;;;5052803;28;20008;-70
2021/01/18 06:56:27;;;;;;;;;;;3.10;84.90;;;;;;5053198;28;20411;-70
2021/01/18 06:58:56;;;;;;;;;;;3.00;85.10;;;;;;5052692;28;20015;-70
2021/01/18 07:01:28;;;;;;;;;;;3.00;85.50;;;;;;5052934;28;20327;-71
2021/01/18 07:03:55;;;;;;;;;;;3.00;85.50;;;;;;5052657;28;19944;-71
2021/01/18 07:06:23;;;;;;;;;;;3.00;85.30;;;;;;5053020;28;19933;-70
2021/01/18 07:08:51;;;;;;;;;;;3.00;85.80;;;;;;5052540;28;19936;-70
2021/01/18 07:11:18;;;;;;;;;;;3.10;85.90;;;;;;5053048;28;20437;-71
2021/01/18 07:13:45;;;;;;;;;;;3.00;86.00;;;;;;5052660;28;20008;-70
2021/01/18 07:16:13;;;;;;;;;;;3.10;86.40;;;;;;5052682;28;20026;-71
2021/01/18 07:18:44;;;;;;;;;;;3.10;86.60;;;;;;5052784;28;20076;-71
2021/01/18 07:21:11;;;;;;;;;;;3.10;86.80;;;;;;5052832;28;19936;-71
2021/01/18 07:23:38;;;;;;;;;;;3.10;86.80;;;;;;5052828;28;19991;-71
2021/01/18 07:26:06;;;;;;;;;;;3.10;86.50;;;;;;5052603;28;19924;-71
2021/01/18 07:28:33;;;;;;;;;;;3.10;86.70;;;;;;5047434;28;20016;-71
2021/01/18 07:31:00;;;;;;;;;;;3.10;86.90;;;;;;5030847;28;19935;-71
2021/01/18 07:33:26;;;;;;;;;;;3.10;86.60;;;;;;5031187;28;20016;-71
2021/01/18 07:35:53;;;;;;;;;;;3.10;87.10;;;;;;5031875;28;19999;-71
2021/01/18 07:38:20;;;;;;;;;;;3.10;87.40;;;;;;5032792;28;20165;-71
2021/01/18 07:41:01;;;;;;;;;;;3.10;87.80;;;;;;5032657;28;20055;-71
2021/01/18 07:43:31;;;;;;;;;;;3.10;87.90;;;;;;5032855;28;20012;-71
2021/01/18 07:46:18;;;;;;;;;;;3.10;87.90;;;;;;5032198;28;20012;-71
2021/01/18 07:48:44;;;;;;;;;;;3.10;87.50;;;;;;5031933;28;20372;-71
2021/01/18 07:51:19;;;;;;;;;;;3.10;87.80;;;;;;5032738;28;20025;-71
2021/01/18 07:53:45;;;;;;;;;;;3.10;87.60;;;;;;5032714;28;20066;-71
2021/01/18 07:56:11;;;;;;;;;;;3.10;87.80;;;;;;5032773;28;20328;-71
2021/01/18 07:58:38;;;;;;;;;;;3.10;88.20;;;;;;5032913;28;20403;-71
2021/01/18 08:01:08;;;;;;;;;;;3.10;88.00;;;;;;5032286;28;20012;-71
2021/01/18 08:03:34;;;;;;;;;;;3.10;88.50;;;;;;5035029;28;20011;-72
2021/01/18 08:06:11;;;;;;;;;;;3.10;88.60;;;;;;5036217;28;20008;-71
2021/01/18 08:08:38;;;;;;;;;;;3.20;88.70;;;;;;5036771;28;19957;-72
2021/01/18 08:11:06;;;;;;;;;;;3.30;89.00;;;;;;5036159;28;20012;-72
2021/01/18 08:13:45;;;;;;;;;;;3.30;89.00;;;;;;5036627;28;20368;-72
2021/01/18 08:16:13;;;;;;;;;;;3.30;89.40;;;;;;5036116;28;20719;-72
2021/01/18 08:18:49;;;;;;;;;;;3.30;89.40;;;;;;5036498;28;20388;-71
2021/01/18 08:21:34;;;;;;;;;;;3.30;89.40;;;;;;5036164;28;19958;-72
2021/01/18 08:24:01;;;;;;;;;;;3.30;89.60;;;;;;5036047;28;20019;-72
2021/01/18 08:26:27;;;;;;;;;;;3.20;89.30;;;;;;5036308;28;20007;-72
2021/01/18 08:28:54;;;;;;;;;;;3.30;89.50;;;;;;5036097;28;20027;-72
2021/01/18 08:31:20;;;;;;;;;;;3.30;89.70;;;;;;5036095;28;19925;-71
2021/01/18 08:33:47;;;;;;;;;;;3.20;89.50;;;;;;5036396;28;20008;-71
2021/01/18 08:36:30;;;;;;;;;;;3.20;90.00;;;;;;5035838;28;20042;-71
2021/01/18 08:39:09;;;;;;;;;;;3.30;90.00;;;;;;5035984;28;20296;-71
2021/01/18 08:41:45;;;;;;;;;;;3.30;89.90;;;;;;5036215;28;20267;-71
2021/01/18 08:44:11;;;;;;;;;;;3.30;90.10;;;;;;5035542;28;20016;-71
2021/01/18 08:46:39;;;;;;;;;;;3.20;90.00;;;;;;5035999;28;19953;-71
2021/01/18 08:49:21;;;;;;;;;;;3.30;89.80;;;;;;5035546;28;20359;-72
2021/01/18 08:51:47;;;;;;;;;;;3.30;89.80;;;;;;5035353;28;19925;-71
2021/01/18 08:54:28;;;;;;;;;;;3.30;89.50;;;;;;5034177;28;20046;-71
2021/01/18 08:57:09;;;;;;;;;;;3.30;89.20;;;;;;5034098;28;20011;-71
2021/01/18 08:59:36;;;;;;;;;;;3.30;89.50;;;;;;5034479;28;19992;-71
2021/01/18 09:02:06;;;;;;;;;;;3.30;89.70;;;;;;5034411;28;20315;-71
2021/01/18 09:04:32;;;;;;;;;;;3.40;89.90;;;;;;5034710;28;19957;-71
2021/01/18 09:07:02;;;;;;;;;;;3.40;89.90;;;;;;5034157;28;19996;-71
2021/01/18 09:09:29;;;;;;;;;;;3.40;89.90;;;;;;5034619;28;19975;-71
2021/01/18 09:11:59;;;;;;;;;;;3.40;90.00;;;;;;5034016;28;20009;-71
2021/01/18 09:14:27;;;;;;;;;;;3.40;90.00;;;;;;5034388;28;19972;-71
2021/01/18 09:16:53;;;;;;;;;;;3.40;89.90;;;;;;5034149;28;20348;-71
2021/01/18 09:19:19;;;;;;;;;;;3.50;90.10;;;;;;5033942;28;21044;-71
2021/01/18 09:21:45;;;;;;;;;;;3.50;90.10;;;;;;5034335;28;20004;-71
2021/01/18 09:24:12;;;;;;;;;;;3.60;90.10;;;;;;5033663;28;20046;-71
2021/01/18 09:26:40;;;;;;;;;;;3.60;90.10;;;;;;5034100;28;20008;-71
2021/01/18 09:29:06;;;;;;;;;;;3.60;90.20;;;;;;5033894;28;19947;-71
2021/01/18 09:31:33;;;;;;;;;;;3.60;90.30;;;;;;5034052;28;20000;-70
2021/01/18 09:34:10;;;;;;;;;;;3.60;90.40;;;;;;5033755;28;20024;-71
2021/01/18 09:36:38;;;;;;;;;;;3.60;90.50;;;;;;5034046;28;20008;-71
2021/01/18 09:39:06;;;;;;;;;;;3.70;90.40;;;;;;5033787;28;20356;-71
2021/01/18 09:41:33;;;;;;;;;;;3.80;90.60;;;;;;5033886;28;20363;-70
2021/01/18 09:44:05;;;;;;;;;;;3.80;90.50;;;;;;5033731;28;19932;-71
2021/01/18 09:46:32;;;;;;;;;;;3.90;90.60;;;;;;5033669;28;20000;-71
2021/01/18 09:48:58;;;;;;;;;;;3.90;90.70;;;;;;5033542;28;20036;-71
2021/01/18 09:51:25;;;;;;;;;;;4.00;90.80;;;;;;4980396;28;1518839;-71
2021/01/18 09:53:55;;;;;;;;;;;4.00;90.80;;;;;;5034821;28;20019;-72
2021/01/18 09:56:23;;;;;;;;;;;4.00;90.80;;;;;;5034114;28;20032;-72
2021/01/18 09:58:53;;;;;;;;;;;4.10;90.90;;;;;;5034800;28;19968;-72
2021/01/18 10:01:23;;;;;;;;;;;4.10;90.90;;;;;;5034097;28;19936;-72
2021/01/18 10:03:52;;;;;;;;;;;4.20;91.00;;;;;;5034642;28;20008;-72
2021/01/18 10:06:21;;;;;;;;;;;4.20;91.00;;;;;;5034140;28;20407;-72
2021/01/18 10:08:49;;;;;;;;;;;4.20;91.00;;;;;;5034725;28;20074;-72
2021/01/18 10:11:22;;;;;;;;;;;4.20;90.90;;;;;;5033918;28;20004;-72
2021/01/18 10:13:56;;;;;;;;;;;4.20;90.80;;;;;;5034284;28;20024;-72
2021/01/18 10:16:24;;;;;;;;;;;4.20;90.60;;;;;;5033965;28;20051;-72
2021/01/18 10:18:50;;;;;;;;;;;4.20;90.60;;;;;;5034243;28;20016;-71
2021/01/18 10:21:16;;;;;;;;;;;4.20;91.10;;;;;;5033718;28;20007;-71
2021/01/18 10:23:45;;;;;;;;;;;4.20;90.70;;;;;;5034246;28;20012;-72
2021/01/18 10:26:19;;;;;;;;;;;4.30;90.80;;;;;;5032929;28;20051;-71
2021/01/18 10:28:50;;;;;;;;;;;4.20;90.70;;;;;;5034081;28;20008;-71
2021/01/18 10:31:17;;;;;;;;;;;4.20;90.70;;;;;;5033616;28;20008;-71
2021/01/18 10:33:44;;;;;;;;;;;4.30;90.80;;;;;;5034193;28;20011;-71
2021/01/18 10:36:10;;;;;;;;;;;4.30;90.90;;;;;;5033529;28;20451;-71
2021/01/18 10:38:37;;;;;;;;;;;4.30;90.90;;;;;;5034038;28;20024;-72
2021/01/18 10:41:05;;;;;;;;;;;4.30;91.30;;;;;;5033456;28;19925;-72
2021/01/18 10:43:31;;;;;;;;;;;4.40;91.00;;;;;;5033907;28;19983;-71
2021/01/18 10:45:58;;;;;;;;;;;4.40;91.00;;;;;;5033737;28;20312;-71
2021/01/18 10:48:28;;;;;;;;;;;4.50;91.10;;;;;;5033153;28;20023;-71
2021/01/18 10:50:59;;;;;;;;;;;4.50;91.00;;;;;;5033718;28;20017;-71
2021/01/18 10:53:29;;;;;;;;;;;4.50;91.10;;;;;;5033379;28;20415;-72
2021/01/18 10:56:12;;;;;;;;;;;4.40;91.30;;;;;;5033559;28;20423;-71
2021/01/18 10:58:39;;;;;;;;;;;4.40;91.50;;;;;;5033853;28;20008;-71
2021/01/18 11:01:12;;;;;;;;;;;4.50;91.60;;;;;;5052661;28;20016;-71
2021/01/18 11:03:40;;;;;;;;;;;4.40;91.70;;;;;;5049866;28;20399;-71
2021/01/18 11:06:11;;;;;;;;;;;4.50;91.70;;;;;;5051841;28;20351;-71
2021/01/18 11:08:37;;;;;;;;;;;4.50;91.60;;;;;;5052561;28;20052;-72
2021/01/18 11:11:15;;;;;;;;;;;4.50;91.70;;;;;;5052002;28;20015;-71
2021/01/18 11:13:41;;;;;;;;;;;4.50;91.90;;;;;;5052575;28;19974;-71
2021/01/18 11:16:10;;;;;;;;;;;4.50;92.00;;;;;;5043564;28;20016;-71
2021/01/18 11:18:37;;;;;;;;;;;4.60;92.00;;;;;;5052177;28;20037;-71
2021/01/18 11:21:03;;;;;;;;;;;4.60;91.90;;;;;;5052437;28;19960;-71
2021/01/18 11:23:30;;;;;;;;;;;4.60;92.10;;;;;;5053239;28;20019;-71
2021/01/18 11:25:56;;;;;;;;;;;4.60;92.10;;;;;;5052643;28;19948;-71
2021/01/18 11:28:22;;;;;;;;;;;4.60;92.20;;;;;;5053179;28;20402;-71
2021/01/18 11:30:49;;;;;;;;;;;4.70;92.30;;;;;;5052629;28;20023;-71
2021/01/18 11:33:15;;;;;;;;;;;4.80;92.40;;;;;;5053033;28;20015;-71
2021/01/18 11:35:43;;;;;;;;;;;4.80;92.30;;;;;;5052801;28;20015;-72
2021/01/18 11:38:10;;;;;;;;;;;4.80;92.30;;;;;;5043461;28;20012;-71
2021/01/18 11:40:37;;;;;;;;;;;4.90;92.30;;;;;;5051946;28;20077;-71
2021/01/18 11:43:03;;;;;;;;;;;4.90;92.40;;;;;;5050983;28;20016;-71
2021/01/18 11:45:29;;;;;;;;;;;4.90;92.50;;;;;;5051782;28;20043;-72
2021/01/18 11:47:56;;;;;;;;;;;4.90;92.70;;;;;;5051692;28;20306;-71
2021/01/18 11:50:22;;;;;;;;;;;4.90;92.90;;;;;;5052828;28;20015;-71
2021/01/18 11:52:51;;;;;;;;;;;4.90;93.00;;;;;;5052301;28;20391;-71
2021/01/18 11:55:18;;;;;;;;;;;5.00;93.20;;;;;;5052756;28;20178;-71
2021/01/18 11:57:45;;;;;;;;;;;4.90;93.10;;;;;;5052718;28;20015;-71
2021/01/18 12:00:13;;;;;;;;;;;4.90;93.30;;;;;;5052165;28;19960;-71
2021/01/18 12:02:39;;;;;;;;;;;5.00;93.40;;;;;;5052758;28;19952;-71
2021/01/18 12:05:07;;;;;;;;;;;5.00;93.30;;;;;;5052246;28;19971;-70
2021/01/18 12:07:33;;;;;;;;;;;5.00;93.30;;;;;;5052822;28;19968;-71
2021/01/18 12:09:59;;;;;;;;;;;5.10;93.40;;;;;;5052322;28;20417;-71
2021/01/18 12:12:26;;;;;;;;;;;5.10;93.50;;;;;;5052590;28;20403;-71
2021/01/18 12:14:53;;;;;;;;;;;5.10;93.50;;;;;;5052304;28;20008;-71
2021/01/18 12:17:19;;;;;;;;;;;5.10;93.50;;;;;;5052275;28;20020;-71
2021/01/18 12:19:45;;;;;;;;;;;5.20;94.10;;;;;;5052611;28;20019;-71
2021/01/18 12:22:12;;;;;;;;;;;5.20;93.80;;;;;;5052098;28;19964;-71
2021/01/18 12:24:40;;;;;;;;;;;5.20;93.90;;;;;;5052570;28;20007;-71
2021/01/18 12:27:06;;;;;;;;;;;5.30;93.90;;;;;;5051891;28;20031;-71
2021/01/18 12:29:32;;;;;;;;;;;5.30;94.00;;;;;;5052649;28;20313;-71
2021/01/18 12:31:59;;;;;;;;;;;5.40;94.00;;;;;;5051809;28;19929;-71
2021/01/18 12:34:26;;;;;;;;;;;5.40;94.00;;;;;;5052482;28;19999;-71
2021/01/18 12:36:55;;;;;;;;;;;5.40;94.10;;;;;;5051949;28;20015;-71
2021/01/18 12:39:22;;;;;;;;;;;5.40;94.20;;;;;;5052057;28;20019;-71
2021/01/18 12:41:49;;;;;;;;;;;5.40;94.40;;;;;;5052465;28;20343;-71
2021/01/18 12:44:15;;;;;;;;;;;5.40;94.50;;;;;;5052037;28;19960;-71
2021/01/18 12:46:41;;;;;;;;;;;5.50;94.50;;;;;;5051948;28;20016;-71
2021/01/18 12:49:08;;;;;;;;;;;5.50;94.50;;;;;;5053476;28;19956;-71
2021/01/18 12:51:34;;;;;;;;;;;5.50;94.50;;;;;;5055650;28;20011;-71
2021/01/18 12:54:01;;;;;;;;;;;5.60;94.60;;;;;;5055530;28;20015;-71
2021/01/18 12:56:28;;;;;;;;;;;5.60;94.60;;;;;;5055801;28;20003;-72
2021/01/18 12:58:56;;;;;;;;;;;5.60;94.60;;;;;;5055492;28;19956;-72
2021/01/18 13:01:29;;;;;;;;;;;5.70;94.80;;;;;;5055794;28;19924;-71
2021/01/18 13:03:55;;;;;;;;;;;5.60;94.90;;;;;;5055384;28;20016;-71
2021/01/18 13:06:22;;;;;;;;;;;5.70;95.00;;;;;;5055563;28;20007;-71
2021/01/18 13:08:48;;;;;;;;;;;5.70;95.00;;;;;;5055593;28;19976;-71
2021/01/18 13:11:15;;;;;;;;;;;5.70;95.10;;;;;;5055168;28;20284;-71
2021/01/18 13:13:42;;;;;;;;;;;5.70;95.10;;;;;;5055445;28;19964;-71
2021/01/18 13:16:08;;;;;;;;;;;5.80;95.30;;;;;;5054731;28;20027;-71
2021/01/18 13:18:34;;;;;;;;;;;5.80;95.30;;;;;;5055637;28;20011;-72
2021/01/18 13:21:01;;;;;;;;;;;5.90;95.40;;;;;;5054790;28;19932;-71
2021/01/18 13:23:28;;;;;;;;;;;5.90;95.50;;;;;;5055256;28;20383;-71
2021/01/18 13:25:55;;;;;;;;;;;5.90;95.60;;;;;;5054860;28;20015;-72
2021/01/18 13:28:21;;;;;;;;;;;6.00;95.70;;;;;;5054879;28;20015;-71
2021/01/18 13:30:47;;;;;;;;;;;6.00;95.70;;;;;;5059969;28;19959;-72
2021/01/18 13:33:13;;;;;;;;;;;6.10;95.70;;;;;;5044404;28;20077;-72
2021/01/18 13:35:39;;;;;;;;;;;6.10;95.70;;;;;;5054551;28;19960;-71
2021/01/18 13:38:06;;;;;;;;;;;6.10;95.70;;;;;;5053854;28;20012;-72
2021/01/18 13:40:33;;;;;;;;;;;6.20;95.70;;;;;;5054415;28;19975;-71
2021/01/18 13:42:59;;;;;;;;;;;6.20;95.70;;;;;;5054252;28;19932;-71
2021/01/18 13:45:25;;;;;;;;;;;6.20;95.70;;;;;;5054642;28;20012;-71
2021/01/18 13:47:51;;;;;;;;;;;6.30;95.80;;;;;;5054720;28;19968;-72
2021/01/18 13:50:18;;;;;;;;;;;6.30;95.90;;;;;;5054071;28;20016;-70
2021/01/18 13:52:44;;;;;;;;;;;6.30;95.90;;;;;;5054516;28;20039;-70
2021/01/18 13:55:11;;;;;;;;;;;6.40;95.90;;;;;;5054088;28;20318;-70
2021/01/18 13:57:38;;;;;;;;;;;6.40;95.90;;;;;;5054639;28;19979;-71
2021/01/18 14:00:05;;;;;;;;;;;6.50;95.90;;;;;;5053143;28;20007;-70
2021/01/18 14:02:31;;;;;;;;;;;6.50;95.90;;;;;;5054228;28;20011;-70
2021/01/18 14:04:57;;;;;;;;;;;6.60;95.80;;;;;;5054116;28;20024;-70
2021/01/18 14:07:24;;;;;;;;;;;6.60;95.80;;;;;;5054277;28;19991;-71
2021/01/18 14:09:50;;;;;;;;;;;6.60;95.80;;;;;;5054403;28;20312;-71
2021/01/18 14:12:16;;;;;;;;;;;6.60;95.80;;;;;;5053919;28;20406;-70
2021/01/18 14:14:43;;;;;;;;;;;6.70;95.90;;;;;;5054304;28;20007;-71
2021/01/18 14:17:09;;;;;;;;;;;6.70;95.80;;;;;;5053621;28;19963;-71
2021/01/18 14:19:36;;;;;;;;;;;6.70;95.80;;;;;;5054273;28;20015;-71
2021/01/18 14:22:03;;;;;;;;;;;6.80;95.90;;;;;;5053668;28;19956;-71
2021/01/18 14:24:30;;;;;;;;;;;6.70;95.90;;;;;;5054421;28;19964;-70
2021/01/18 14:26:56;;;;;;;;;;;6.80;96.00;;;;;;5053751;28;19956;-71
2021/01/18 14:29:22;;;;;;;;;;;6.80;96.00;;;;;;5053527;28;20322;-71
2021/01/18 14:31:49;;;;;;;;;;;6.80;95.90;;;;;;5041104;28;20396;-71
2021/01/18 14:34:16;;;;;;;;;;;6.80;96.00;;;;;;5033517;28;19956;-71
2021/01/18 14:36:43;;;;;;;;;;;6.90;96.20;;;;;;5034031;28;20020;-70
2021/01/18 14:39:10;;;;;;;;;;;6.90;96.20;;;;;;5043331;28;19944;-71